sensor_id;sensor_type;location;lat;lon;timestamp;P1;durP1;ratioP1;P2;durP2;ratioP2
7523;SDS011;3803;51.666;7.630;2022-12-01T00:00:03;68.30;;;28.20;;
7523;SDS011;3803;51.666;7.630;2022-12-01T00:00:25;68.60;;;27.90;;
7523;SDS011;3803;51.666;7.630;2022-12-01T00:00:45;71.43;;;28.70;;
7523;SDS011;3803;51.666;7.630;2022-12-01T00:01:06;71.05;;;29.13;;
7523;SDS011;3803;51.666;7.630;2022-12-01T00:01:28;66.55;;;29.00;;
7523;SDS011;3803;51.666;7.630;2022-12-01T00:01:50;65.43;;;28.85;;
7523;SDS011;3803;51.666;7.630;2022-12-01T00:02:10;66.10;;;29.50;;
7523;SDS011;3803;51.666;7.630;2022-12-01T00:02:31;68.32;;;29.67;;
7523;SDS011;3803;51.666;7.630;2022-12-01T00:02:52;65.63;;;28.95;;
7523;SDS011;3803;51.666;7.630;2022-12-01T00:03:12;64.13;;;28.57;;
7523;SDS011;3803;51.666;7.630;2022-12-01T00:03:33;61.00;;;27.88;;
7523;SDS011;3803;51.666;7.630;2022-12-01T00:03:54;61.60;;;28.25;;
7523;SDS011;3803;51.666;7.630;2022-12-01T00:04:15;58.53;;;27.90;;
7523;SDS011;3803;51.666;7.630;2022-12-01T00:04:35;62.03;;;27.95;;
7523;SDS011;3803;51.666;7.630;2022-12-01T00:04:57;62.42;;;27.65;;
7523;SDS011;3803;51.666;7.630;2022-12-01T00:05:17;62.60;;;27.60;;
7523;SDS011;3803;51.666;7.630;2022-12-01T00:05:39;59.08;;;27.50;;
7523;SDS011;3803;51.666;7.630;2022-12-01T00:06:03;60.85;;;27.63;;
7523;SDS011;3803;51.666;7.630;2022-12-01T00:06:25;63.47;;;28.40;;
7523;SDS011;3803;51.666;7.630;2022-12-01T00:06:46;63.65;;;27.60;;
7523;SDS011;3803;51.666;7.630;2022-12-01T00:07:07;59.95;;;26.88;;
7523;SDS011;3803;51.666;7.630;2022-12-01T00:07:27;57.70;;;26.40;;
7523;SDS011;3803;51.666;7.630;2022-12-01T00:07:48;56.42;;;27.17;;
7523;SDS011;3803;51.666;7.630;2022-12-01T00:08:08;55.55;;;27.08;;
7523;SDS011;3803;51.666;7.630;2022-12-01T00:08:29;54.90;;;26.13;;
7523;SDS011;3803;51.666;7.630;2022-12-01T00:08:51;56.03;;;25.52;;
7523;SDS011;3803;51.666;7.630;2022-12-01T00:09:30;57.17;;;25.90;;
7523;SDS011;3803;51.666;7.630;2022-12-01T00:10:10;57.40;;;27.15;;
7523;SDS011;3803;51.666;7.630;2022-12-01T00:10:45;56.92;;;27.15;;
7523;SDS011;3803;51.666;7.630;2022-12-01T00:11:08;56.05;;;26.73;;
7523;SDS011;3803;51.666;7.630;2022-12-01T00:11:31;56.25;;;26.85;;
7523;SDS011;3803;51.666;7.630;2022-12-01T00:11:54;57.15;;;26.45;;
7523;SDS011;3803;51.666;7.630;2022-12-01T00:12:15;56.88;;;25.85;;
7523;SDS011;3803;51.666;7.630;2022-12-01T00:12:36;56.90;;;25.38;;
7523;SDS011;3803;51.666;7.630;2022-12-01T00:13:03;57.08;;;25.77;;
7523;SDS011;3803;51.666;7.630;2022-12-01T00:13:25;59.97;;;26.02;;
7523;SDS011;3803;51.666;7.630;2022-12-01T00:13:45;58.30;;;26.50;;
7523;SDS011;3803;51.666;7.630;2022-12-01T00:14:06;57.70;;;26.57;;
7523;SDS011;3803;51.666;7.630;2022-12-01T00:14:26;55.53;;;26.50;;
7523;SDS011;3803;51.666;7.630;2022-12-01T00:14:47;57.72;;;25.75;;
7523;SDS011;3803;51.666;7.630;2022-12-01T00:15:14;55.67;;;25.35;;
7523;SDS011;3803;51.666;7.630;2022-12-01T00:15:35;55.53;;;25.47;;
7523;SDS011;3803;51.666;7.630;2022-12-01T00:15:56;56.05;;;25.55;;
7523;SDS011;3803;51.666;7.630;2022-12-01T00:16:16;58.30;;;26.10;;
7523;SDS011;3803;51.666;7.630;2022-12-01T00:16:37;57.00;;;25.40;;
7523;SDS011;3803;51.666;7.630;2022-12-01T00:16:59;54.90;;;25.17;;
7523;SDS011;3803;51.666;7.630;2022-12-01T00:17:20;53.50;;;25.10;;
7523;SDS011;3803;51.666;7.630;2022-12-01T00:17:41;53.38;;;25.42;;
7523;SDS011;3803;51.666;7.630;2022-12-01T00:18:05;54.95;;;25.80;;
7523;SDS011;3803;51.666;7.630;2022-12-01T00:18:25;56.15;;;26.33;;
7523;SDS011;3803;51.666;7.630;2022-12-01T00:18:48;57.80;;;26.70;;
7523;SDS011;3803;51.666;7.630;2022-12-01T00:19:10;55.38;;;26.35;;
7523;SDS011;3803;51.666;7.630;2022-12-01T00:19:30;54.50;;;26.60;;
7523;SDS011;3803;51.666;7.630;2022-12-01T00:19:51;56.38;;;27.00;;
7523;SDS011;3803;51.666;7.630;2022-12-01T00:20:12;57.70;;;26.77;;
7523;SDS011;3803;51.666;7.630;2022-12-01T00:20:34;56.92;;;26.17;;
7523;SDS011;3803;51.666;7.630;2022-12-01T00:20:55;52.47;;;24.67;;
7523;SDS011;3803;51.666;7.630;2022-12-01T00:21:16;50.70;;;24.17;;
7523;SDS011;3803;51.666;7.630;2022-12-01T00:21:39;50.05;;;24.50;;
7523;SDS011;3803;51.666;7.630;2022-12-01T00:21:59;49.50;;;23.83;;
7523;SDS011;3803;51.666;7.630;2022-12-01T00:22:20;48.30;;;24.23;;
7523;SDS011;3803;51.666;7.630;2022-12-01T00:22:41;46.58;;;23.80;;
7523;SDS011;3803;51.666;7.630;2022-12-01T00:23:02;50.85;;;24.85;;
7523;SDS011;3803;51.666;7.630;2022-12-01T00:23:23;53.10;;;25.00;;
7523;SDS011;3803;51.666;7.630;2022-12-01T00:23:44;55.88;;;25.80;;
7523;SDS011;3803;51.666;7.630;2022-12-01T00:24:08;51.65;;;25.58;;
7523;SDS011;3803;51.666;7.630;2022-12-01T00:24:29;49.80;;;24.98;;
7523;SDS011;3803;51.666;7.630;2022-12-01T00:24:50;50.70;;;24.73;;
7523;SDS011;3803;51.666;7.630;2022-12-01T00:25:11;54.93;;;25.77;;
7523;SDS011;3803;51.666;7.630;2022-12-01T00:25:32;55.58;;;25.90;;
7523;SDS011;3803;51.666;7.630;2022-12-01T00:25:52;53.20;;;24.83;;
7523;SDS011;3803;51.666;7.630;2022-12-01T00:26:16;52.58;;;24.40;;
7523;SDS011;3803;51.666;7.630;2022-12-01T00:26:39;54.17;;;25.15;;
7523;SDS011;3803;51.666;7.630;2022-12-01T00:27:01;55.60;;;25.25;;
7523;SDS011;3803;51.666;7.630;2022-12-01T00:27:22;53.47;;;25.15;;
7523;SDS011;3803;51.666;7.630;2022-12-01T00:27:46;51.40;;;24.10;;
7523;SDS011;3803;51.666;7.630;2022-12-01T00:28:08;54.50;;;24.38;;
7523;SDS011;3803;51.666;7.630;2022-12-01T00:28:28;55.90;;;24.88;;
7523;SDS011;3803;51.666;7.630;2022-12-01T00:28:52;56.00;;;25.53;;
7523;SDS011;3803;51.666;7.630;2022-12-01T00:29:14;57.50;;;25.75;;
7523;SDS011;3803;51.666;7.630;2022-12-01T00:29:35;55.83;;;25.43;;
7523;SDS011;3803;51.666;7.630;2022-12-01T00:29:55;54.50;;;25.25;;
7523;SDS011;3803;51.666;7.630;2022-12-01T00:30:16;49.80;;;24.77;;
7523;SDS011;3803;51.666;7.630;2022-12-01T00:30:38;49.33;;;24.33;;
7523;SDS011;3803;51.666;7.630;2022-12-01T00:30:59;47.30;;;24.25;;
7523;SDS011;3803;51.666;7.630;2022-12-01T00:31:20;50.20;;;24.57;;
7523;SDS011;3803;51.666;7.630;2022-12-01T00:31:40;52.35;;;24.75;;
7523;SDS011;3803;51.666;7.630;2022-12-01T00:32:01;53.23;;;24.53;;
7523;SDS011;3803;51.666;7.630;2022-12-01T00:32:22;53.35;;;24.45;;
7523;SDS011;3803;51.666;7.630;2022-12-01T00:32:42;53.95;;;24.40;;
7523;SDS011;3803;51.666;7.630;2022-12-01T00:33:04;53.38;;;24.17;;
7523;SDS011;3803;51.666;7.630;2022-12-01T00:33:24;52.05;;;24.38;;
7523;SDS011;3803;51.666;7.630;2022-12-01T00:33:45;50.00;;;25.10;;
7523;SDS011;3803;51.666;7.630;2022-12-01T00:34:05;51.10;;;24.90;;
7523;SDS011;3803;51.666;7.630;2022-12-01T00:34:26;50.28;;;24.55;;
7523;SDS011;3803;51.666;7.630;2022-12-01T00:34:47;47.60;;;23.67;;
7523;SDS011;3803;51.666;7.630;2022-12-01T00:35:07;49.37;;;23.70;;
7523;SDS011;3803;51.666;7.630;2022-12-01T00:35:28;51.53;;;23.45;;
7523;SDS011;3803;51.666;7.630;2022-12-01T00:35:49;54.60;;;23.00;;
7523;SDS011;3803;51.666;7.630;2022-12-01T00:36:10;51.30;;;22.73;;
7523;SDS011;3803;51.666;7.630;2022-12-01T00:36:31;49.53;;;22.92;;
7523;SDS011;3803;51.666;7.630;2022-12-01T00:36:52;51.63;;;24.00;;
7523;SDS011;3803;51.666;7.630;2022-12-01T00:37:13;51.10;;;24.25;;
7523;SDS011;3803;51.666;7.630;2022-12-01T00:37:33;52.67;;;24.17;;
7523;SDS011;3803;51.666;7.630;2022-12-01T00:37:54;50.47;;;23.65;;
7523;SDS011;3803;51.666;7.630;2022-12-01T00:38:15;51.20;;;23.63;;
7523;SDS011;3803;51.666;7.630;2022-12-01T00:38:35;52.92;;;23.77;;
7523;SDS011;3803;51.666;7.630;2022-12-01T00:38:57;55.20;;;24.40;;
7523;SDS011;3803;51.666;7.630;2022-12-01T00:39:17;53.92;;;24.45;;
7523;SDS011;3803;51.666;7.630;2022-12-01T00:39:38;53.33;;;24.85;;
7523;SDS011;3803;51.666;7.630;2022-12-01T00:39:59;51.43;;;24.30;;
7523;SDS011;3803;51.666;7.630;2022-12-01T00:40:20;52.15;;;24.42;;
7523;SDS011;3803;51.666;7.630;2022-12-01T00:40:40;49.60;;;24.20;;
7523;SDS011;3803;51.666;7.630;2022-12-01T00:41:01;49.13;;;23.63;;
7523;SDS011;3803;51.666;7.630;2022-12-01T00:41:23;46.67;;;22.45;;
7523;SDS011;3803;51.666;7.630;2022-12-01T00:41:45;45.95;;;22.00;;
7523;SDS011;3803;51.666;7.630;2022-12-01T00:42:06;46.88;;;22.27;;
7523;SDS011;3803;51.666;7.630;2022-12-01T00:42:26;46.40;;;22.70;;
7523;SDS011;3803;51.666;7.630;2022-12-01T00:42:47;49.08;;;23.65;;
7523;SDS011;3803;51.666;7.630;2022-12-01T00:43:08;49.17;;;24.52;;
7523;SDS011;3803;51.666;7.630;2022-12-01T00:43:28;50.10;;;24.73;;
7523;SDS011;3803;51.666;7.630;2022-12-01T00:43:49;47.23;;;23.57;;
7523;SDS011;3803;51.666;7.630;2022-12-01T00:44:10;47.90;;;23.23;;
7523;SDS011;3803;51.666;7.630;2022-12-01T00:44:30;47.72;;;22.95;;
7523;SDS011;3803;51.666;7.630;2022-12-01T00:44:51;50.45;;;22.75;;
7523;SDS011;3803;51.666;7.630;2022-12-01T00:45:12;52.08;;;23.05;;
7523;SDS011;3803;51.666;7.630;2022-12-01T00:45:33;53.38;;;22.92;;
7523;SDS011;3803;51.666;7.630;2022-12-01T00:45:53;51.37;;;23.40;;
7523;SDS011;3803;51.666;7.630;2022-12-01T00:46:15;50.58;;;23.40;;
7523;SDS011;3803;51.666;7.630;2022-12-01T00:46:36;52.15;;;24.42;;
7523;SDS011;3803;51.666;7.630;2022-12-01T00:46:56;53.77;;;24.10;;
7523;SDS011;3803;51.666;7.630;2022-12-01T00:47:17;52.20;;;24.13;;
7523;SDS011;3803;51.666;7.630;2022-12-01T00:47:38;49.60;;;22.95;;
7523;SDS011;3803;51.666;7.630;2022-12-01T00:47:59;51.72;;;23.75;;
7523;SDS011;3803;51.666;7.630;2022-12-01T00:48:19;51.83;;;23.63;;
7523;SDS011;3803;51.666;7.630;2022-12-01T00:48:40;49.73;;;24.07;;
7523;SDS011;3803;51.666;7.630;2022-12-01T00:49:00;47.92;;;23.90;;
7523;SDS011;3803;51.666;7.630;2022-12-01T00:49:21;47.83;;;23.33;;
7523;SDS011;3803;51.666;7.630;2022-12-01T00:49:42;51.03;;;23.80;;
7523;SDS011;3803;51.666;7.630;2022-12-01T00:50:04;51.10;;;24.08;;
7523;SDS011;3803;51.666;7.630;2022-12-01T00:50:25;48.50;;;24.02;;
7523;SDS011;3803;51.666;7.630;2022-12-01T00:50:46;45.75;;;23.48;;
7523;SDS011;3803;51.666;7.630;2022-12-01T00:51:10;44.38;;;23.45;;
7523;SDS011;3803;51.666;7.630;2022-12-01T00:51:30;48.83;;;23.93;;
7523;SDS011;3803;51.666;7.630;2022-12-01T00:51:51;49.10;;;23.17;;
7523;SDS011;3803;51.666;7.630;2022-12-01T00:52:12;50.58;;;23.35;;
7523;SDS011;3803;51.666;7.630;2022-12-01T00:52:34;46.92;;;22.80;;
7523;SDS011;3803;51.666;7.630;2022-12-01T00:52:54;48.50;;;23.03;;
7523;SDS011;3803;51.666;7.630;2022-12-01T00:53:15;48.83;;;23.40;;
7523;SDS011;3803;51.666;7.630;2022-12-01T00:53:35;51.03;;;23.48;;
7523;SDS011;3803;51.666;7.630;2022-12-01T00:53:56;49.75;;;23.50;;
7523;SDS011;3803;51.666;7.630;2022-12-01T00:54:17;51.20;;;23.35;;
7523;SDS011;3803;51.666;7.630;2022-12-01T00:54:38;54.20;;;24.02;;
7523;SDS011;3803;51.666;7.630;2022-12-01T00:54:59;52.63;;;24.23;;
7523;SDS011;3803;51.666;7.630;2022-12-01T00:55:19;50.70;;;23.30;;
7523;SDS011;3803;51.666;7.630;2022-12-01T00:55:40;47.78;;;22.65;;
7523;SDS011;3803;51.666;7.630;2022-12-01T00:56:00;48.97;;;22.63;;
7523;SDS011;3803;51.666;7.630;2022-12-01T00:56:21;47.83;;;23.13;;
7523;SDS011;3803;51.666;7.630;2022-12-01T00:56:42;46.67;;;23.90;;
7523;SDS011;3803;51.666;7.630;2022-12-01T00:57:03;46.60;;;23.70;;
7523;SDS011;3803;51.666;7.630;2022-12-01T00:57:24;46.70;;;23.88;;
7523;SDS011;3803;51.666;7.630;2022-12-01T00:57:44;48.60;;;22.80;;
7523;SDS011;3803;51.666;7.630;2022-12-01T00:58:05;47.13;;;22.73;;
7523;SDS011;3803;51.666;7.630;2022-12-01T00:58:26;47.53;;;22.60;;
7523;SDS011;3803;51.666;7.630;2022-12-01T00:58:48;47.67;;;22.65;;
7523;SDS011;3803;51.666;7.630;2022-12-01T00:59:09;50.40;;;22.90;;
7523;SDS011;3803;51.666;7.630;2022-12-01T00:59:30;53.03;;;23.27;;
7523;SDS011;3803;51.666;7.630;2022-12-01T00:59:51;56.47;;;23.35;;
7523;SDS011;3803;51.666;7.630;2022-12-01T01:00:12;54.25;;;23.20;;
7523;SDS011;3803;51.666;7.630;2022-12-01T01:00:33;50.88;;;22.92;;
7523;SDS011;3803;51.666;7.630;2022-12-01T01:00:57;50.20;;;22.97;;
7523;SDS011;3803;51.666;7.630;2022-12-01T01:01:19;53.70;;;23.55;;
7523;SDS011;3803;51.666;7.630;2022-12-01T01:01:39;52.13;;;23.23;;
7523;SDS011;3803;51.666;7.630;2022-12-01T01:02:03;47.90;;;22.67;;
7523;SDS011;3803;51.666;7.630;2022-12-01T01:02:25;43.58;;;22.02;;
7523;SDS011;3803;51.666;7.630;2022-12-01T01:02:45;44.80;;;22.17;;
7523;SDS011;3803;51.666;7.630;2022-12-01T01:03:06;46.40;;;22.80;;
7523;SDS011;3803;51.666;7.630;2022-12-01T01:03:27;49.47;;;23.02;;
7523;SDS011;3803;51.666;7.630;2022-12-01T01:03:49;48.50;;;23.60;;
7523;SDS011;3803;51.666;7.630;2022-12-01T01:04:09;47.80;;;24.40;;
7523;SDS011;3803;51.666;7.630;2022-12-01T01:04:30;48.67;;;23.98;;
7523;SDS011;3803;51.666;7.630;2022-12-01T01:04:52;48.33;;;23.45;;
7523;SDS011;3803;51.666;7.630;2022-12-01T01:05:13;49.28;;;23.10;;
7523;SDS011;3803;51.666;7.630;2022-12-01T01:05:40;47.20;;;23.37;;
7523;SDS011;3803;51.666;7.630;2022-12-01T01:06:05;48.08;;;23.00;;
7523;SDS011;3803;51.666;7.630;2022-12-01T01:06:29;48.03;;;23.08;;
7523;SDS011;3803;51.666;7.630;2022-12-01T01:06:49;54.70;;;24.17;;
7523;SDS011;3803;51.666;7.630;2022-12-01T01:07:10;56.33;;;24.60;;
7523;SDS011;3803;51.666;7.630;2022-12-01T01:07:30;56.38;;;23.95;;
7523;SDS011;3803;51.666;7.630;2022-12-01T01:07:51;49.70;;;23.93;;
7523;SDS011;3803;51.666;7.630;2022-12-01T01:08:12;47.80;;;23.20;;
7523;SDS011;3803;51.666;7.630;2022-12-01T01:08:34;46.88;;;23.30;;
7523;SDS011;3803;51.666;7.630;2022-12-01T01:08:55;46.25;;;22.50;;
7523;SDS011;3803;51.666;7.630;2022-12-01T01:09:16;45.67;;;21.87;;
7523;SDS011;3803;51.666;7.630;2022-12-01T01:09:36;43.63;;;21.65;;
7523;SDS011;3803;51.666;7.630;2022-12-01T01:09:57;45.85;;;22.25;;
7523;SDS011;3803;51.666;7.630;2022-12-01T01:10:18;49.10;;;23.53;;
7523;SDS011;3803;51.666;7.630;2022-12-01T01:10:39;52.90;;;23.73;;
7523;SDS011;3803;51.666;7.630;2022-12-01T01:11:00;48.17;;;23.27;;
7523;SDS011;3803;51.666;7.630;2022-12-01T01:11:21;46.00;;;22.20;;
7523;SDS011;3803;51.666;7.630;2022-12-01T01:11:42;42.65;;;21.70;;
7523;SDS011;3803;51.666;7.630;2022-12-01T01:12:03;45.08;;;21.83;;
7523;SDS011;3803;51.666;7.630;2022-12-01T01:12:24;46.30;;;22.67;;
7523;SDS011;3803;51.666;7.630;2022-12-01T01:12:46;47.38;;;22.73;;
7523;SDS011;3803;51.666;7.630;2022-12-01T01:13:06;49.13;;;23.50;;
7523;SDS011;3803;51.666;7.630;2022-12-01T01:13:27;49.00;;;23.20;;
7523;SDS011;3803;51.666;7.630;2022-12-01T01:13:48;47.80;;;22.55;;
7523;SDS011;3803;51.666;7.630;2022-12-01T01:14:09;45.50;;;21.30;;
7523;SDS011;3803;51.666;7.630;2022-12-01T01:14:29;44.25;;;20.98;;
7523;SDS011;3803;51.666;7.630;2022-12-01T01:14:50;42.70;;;20.77;;
7523;SDS011;3803;51.666;7.630;2022-12-01T01:15:11;43.15;;;21.25;;
7523;SDS011;3803;51.666;7.630;2022-12-01T01:15:32;43.45;;;21.30;;
7523;SDS011;3803;51.666;7.630;2022-12-01T01:15:59;45.75;;;21.95;;
7523;SDS011;3803;51.666;7.630;2022-12-01T01:16:34;47.42;;;22.55;;
7523;SDS011;3803;51.666;7.630;2022-12-01T01:16:55;51.40;;;22.50;;
7523;SDS011;3803;51.666;7.630;2022-12-01T01:17:15;51.88;;;21.90;;
7523;SDS011;3803;51.666;7.630;2022-12-01T01:17:36;51.30;;;21.90;;
7523;SDS011;3803;51.666;7.630;2022-12-01T01:17:57;47.45;;;22.05;;
7523;SDS011;3803;51.666;7.630;2022-12-01T01:18:18;45.40;;;22.25;;
7523;SDS011;3803;51.666;7.630;2022-12-01T01:18:39;46.67;;;22.67;;
7523;SDS011;3803;51.666;7.630;2022-12-01T01:18:59;44.60;;;21.93;;
7523;SDS011;3803;51.666;7.630;2022-12-01T01:19:20;46.60;;;21.92;;
7523;SDS011;3803;51.666;7.630;2022-12-01T01:19:42;44.08;;;21.42;;
7523;SDS011;3803;51.666;7.630;2022-12-01T01:20:02;47.03;;;22.40;;
7523;SDS011;3803;51.666;7.630;2022-12-01T01:20:23;46.10;;;22.23;;
7523;SDS011;3803;51.666;7.630;2022-12-01T01:20:44;49.78;;;22.50;;
7523;SDS011;3803;51.666;7.630;2022-12-01T01:21:16;51.63;;;22.50;;
7523;SDS011;3803;51.666;7.630;2022-12-01T01:21:38;45.20;;;21.08;;
7523;SDS011;3803;51.666;7.630;2022-12-01T01:21:59;39.72;;;20.95;;
7523;SDS011;3803;51.666;7.630;2022-12-01T01:22:19;41.58;;;21.20;;
7523;SDS011;3803;51.666;7.630;2022-12-01T01:22:40;44.27;;;21.90;;
7523;SDS011;3803;51.666;7.630;2022-12-01T01:23:00;47.08;;;21.77;;
7523;SDS011;3803;51.666;7.630;2022-12-01T01:23:21;46.55;;;21.92;;
7523;SDS011;3803;51.666;7.630;2022-12-01T01:23:42;48.07;;;21.77;;
7523;SDS011;3803;51.666;7.630;2022-12-01T01:24:02;46.00;;;21.52;;
7523;SDS011;3803;51.666;7.630;2022-12-01T01:24:23;47.05;;;21.30;;
7523;SDS011;3803;51.666;7.630;2022-12-01T01:24:44;45.17;;;21.58;;
7523;SDS011;3803;51.666;7.630;2022-12-01T01:25:05;49.73;;;22.20;;
7523;SDS011;3803;51.666;7.630;2022-12-01T01:25:25;50.03;;;22.60;;
7523;SDS011;3803;51.666;7.630;2022-12-01T01:25:46;52.17;;;22.83;;
7523;SDS011;3803;51.666;7.630;2022-12-01T01:26:09;48.65;;;22.70;;
7523;SDS011;3803;51.666;7.630;2022-12-01T01:26:31;49.20;;;21.85;;
7523;SDS011;3803;51.666;7.630;2022-12-01T01:26:52;47.08;;;21.77;;
7523;SDS011;3803;51.666;7.630;2022-12-01T01:27:14;44.58;;;21.98;;
7523;SDS011;3803;51.666;7.630;2022-12-01T01:27:35;46.13;;;22.52;;
7523;SDS011;3803;51.666;7.630;2022-12-01T01:27:55;50.25;;;22.92;;
7523;SDS011;3803;51.666;7.630;2022-12-01T01:28:16;50.00;;;22.30;;
7523;SDS011;3803;51.666;7.630;2022-12-01T01:28:39;50.08;;;22.35;;
7523;SDS011;3803;51.666;7.630;2022-12-01T01:29:02;50.33;;;22.60;;
7523;SDS011;3803;51.666;7.630;2022-12-01T01:29:24;48.75;;;22.95;;
7523;SDS011;3803;51.666;7.630;2022-12-01T01:29:44;47.58;;;22.50;;
7523;SDS011;3803;51.666;7.630;2022-12-01T01:30:05;49.38;;;22.48;;
7523;SDS011;3803;51.666;7.630;2022-12-01T01:30:26;50.70;;;22.48;;
7523;SDS011;3803;51.666;7.630;2022-12-01T01:30:47;49.88;;;22.20;;
7523;SDS011;3803;51.666;7.630;2022-12-01T01:31:08;47.13;;;21.73;;
7523;SDS011;3803;51.666;7.630;2022-12-01T01:31:31;48.42;;;22.13;;
7523;SDS011;3803;51.666;7.630;2022-12-01T01:31:51;45.88;;;21.65;;
7523;SDS011;3803;51.666;7.630;2022-12-01T01:32:12;50.67;;;22.40;;
7523;SDS011;3803;51.666;7.630;2022-12-01T01:32:33;49.93;;;22.17;;
7523;SDS011;3803;51.666;7.630;2022-12-01T01:32:54;54.30;;;23.02;;
7523;SDS011;3803;51.666;7.630;2022-12-01T01:33:15;50.15;;;22.60;;
7523;SDS011;3803;51.666;7.630;2022-12-01T01:33:35;48.30;;;22.45;;
7523;SDS011;3803;51.666;7.630;2022-12-01T01:33:56;44.05;;;21.63;;
7523;SDS011;3803;51.666;7.630;2022-12-01T01:34:18;46.00;;;22.08;;
7523;SDS011;3803;51.666;7.630;2022-12-01T01:34:38;49.78;;;22.63;;
7523;SDS011;3803;51.666;7.630;2022-12-01T01:34:59;51.38;;;22.00;;
7523;SDS011;3803;51.666;7.630;2022-12-01T01:35:19;48.67;;;21.17;;
7523;SDS011;3803;51.666;7.630;2022-12-01T01:35:40;48.33;;;22.42;;
7523;SDS011;3803;51.666;7.630;2022-12-01T01:36:02;46.92;;;22.67;;
7523;SDS011;3803;51.666;7.630;2022-12-01T01:36:24;46.30;;;23.13;;
7523;SDS011;3803;51.666;7.630;2022-12-01T01:36:45;42.80;;;22.13;;
7523;SDS011;3803;51.666;7.630;2022-12-01T01:37:05;44.13;;;22.58;;
7523;SDS011;3803;51.666;7.630;2022-12-01T01:37:26;45.83;;;22.33;;
7523;SDS011;3803;51.666;7.630;2022-12-01T01:37:46;49.80;;;21.85;;
7523;SDS011;3803;51.666;7.630;2022-12-01T01:38:09;46.38;;;20.88;;
7523;SDS011;3803;51.666;7.630;2022-12-01T01:38:30;45.95;;;20.80;;
7523;SDS011;3803;51.666;7.630;2022-12-01T01:38:51;44.65;;;21.20;;
7523;SDS011;3803;51.666;7.630;2022-12-01T01:39:13;47.80;;;21.95;;
7523;SDS011;3803;51.666;7.630;2022-12-01T01:39:34;45.47;;;21.70;;
7523;SDS011;3803;51.666;7.630;2022-12-01T01:39:55;45.30;;;21.35;;
7523;SDS011;3803;51.666;7.630;2022-12-01T01:40:16;42.97;;;20.88;;
7523;SDS011;3803;51.666;7.630;2022-12-01T01:40:44;43.30;;;21.15;;
7523;SDS011;3803;51.666;7.630;2022-12-01T01:41:05;46.35;;;22.63;;
7523;SDS011;3803;51.666;7.630;2022-12-01T01:41:27;46.75;;;22.40;;
7523;SDS011;3803;51.666;7.630;2022-12-01T01:41:48;46.35;;;22.40;;
7523;SDS011;3803;51.666;7.630;2022-12-01T01:42:12;45.00;;;21.23;;
7523;SDS011;3803;51.666;7.630;2022-12-01T01:42:33;41.58;;;21.05;;
7523;SDS011;3803;51.666;7.630;2022-12-01T01:42:54;43.60;;;20.73;;
7523;SDS011;3803;51.666;7.630;2022-12-01T01:43:15;43.42;;;20.13;;
7523;SDS011;3803;51.666;7.630;2022-12-01T01:44:01;47.13;;;20.75;;
7523;SDS011;3803;51.666;7.630;2022-12-01T01:45:20;44.53;;;20.48;;
7523;SDS011;3803;51.666;7.630;2022-12-01T01:45:44;46.25;;;21.75;;
7523;SDS011;3803;51.666;7.630;2022-12-01T01:46:04;44.80;;;21.20;;
7523;SDS011;3803;51.666;7.630;2022-12-01T01:46:31;45.65;;;21.20;;
7523;SDS011;3803;51.666;7.630;2022-12-01T01:46:53;48.28;;;21.10;;
7523;SDS011;3803;51.666;7.630;2022-12-01T01:47:15;50.20;;;22.50;;
7523;SDS011;3803;51.666;7.630;2022-12-01T01:47:46;46.38;;;22.23;;
7523;SDS011;3803;51.666;7.630;2022-12-01T01:48:11;42.03;;;20.42;;
7523;SDS011;3803;51.666;7.630;2022-12-01T01:48:33;42.28;;;20.63;;
7523;SDS011;3803;51.666;7.630;2022-12-01T01:49:16;43.60;;;21.45;;
7523;SDS011;3803;51.666;7.630;2022-12-01T01:49:37;41.37;;;20.90;;
7523;SDS011;3803;51.666;7.630;2022-12-01T01:49:59;41.83;;;20.95;;
7523;SDS011;3803;51.666;7.630;2022-12-01T01:50:25;44.92;;;21.02;;
7523;SDS011;3803;51.666;7.630;2022-12-01T01:50:48;45.50;;;21.55;;
7523;SDS011;3803;51.666;7.630;2022-12-01T01:51:09;46.35;;;21.55;;
7523;SDS011;3803;51.666;7.630;2022-12-01T01:51:57;45.72;;;21.35;;
7523;SDS011;3803;51.666;7.630;2022-12-01T01:52:18;44.67;;;20.80;;
7523;SDS011;3803;51.666;7.630;2022-12-01T01:52:40;43.28;;;21.00;;
7523;SDS011;3803;51.666;7.630;2022-12-01T01:53:06;44.05;;;21.23;;
7523;SDS011;3803;51.666;7.630;2022-12-01T01:53:31;45.47;;;21.85;;
7523;SDS011;3803;51.666;7.630;2022-12-01T01:53:53;46.33;;;21.98;;
7523;SDS011;3803;51.666;7.630;2022-12-01T01:54:45;44.33;;;21.48;;
7523;SDS011;3803;51.666;7.630;2022-12-01T01:55:08;46.97;;;21.55;;
7523;SDS011;3803;51.666;7.630;2022-12-01T01:55:29;48.10;;;21.67;;
7523;SDS011;3803;51.666;7.630;2022-12-01T01:55:53;46.88;;;22.00;;
7523;SDS011;3803;51.666;7.630;2022-12-01T01:56:13;49.33;;;22.80;;
7523;SDS011;3803;51.666;7.630;2022-12-01T01:56:34;49.88;;;23.05;;
7523;SDS011;3803;51.666;7.630;2022-12-01T01:56:56;47.38;;;22.05;;
7523;SDS011;3803;51.666;7.630;2022-12-01T01:57:21;43.30;;;21.42;;
7523;SDS011;3803;51.666;7.630;2022-12-01T01:57:45;44.35;;;22.00;;
7523;SDS011;3803;51.666;7.630;2022-12-01T01:58:06;46.80;;;22.30;;
7523;SDS011;3803;51.666;7.630;2022-12-01T01:58:29;48.92;;;21.80;;
7523;SDS011;3803;51.666;7.630;2022-12-01T01:58:51;51.85;;;22.17;;
7523;SDS011;3803;51.666;7.630;2022-12-01T01:59:14;49.50;;;21.60;;
7523;SDS011;3803;51.666;7.630;2022-12-01T01:59:40;44.30;;;21.25;;
7523;SDS011;3803;51.666;7.630;2022-12-01T02:00:06;42.08;;;21.08;;
7523;SDS011;3803;51.666;7.630;2022-12-01T02:00:33;43.80;;;21.02;;
7523;SDS011;3803;51.666;7.630;2022-12-01T02:00:55;45.25;;;21.30;;
7523;SDS011;3803;51.666;7.630;2022-12-01T02:01:16;45.75;;;21.65;;
7523;SDS011;3803;51.666;7.630;2022-12-01T02:01:36;46.03;;;21.80;;
7523;SDS011;3803;51.666;7.630;2022-12-01T02:02:04;45.70;;;21.73;;
7523;SDS011;3803;51.666;7.630;2022-12-01T02:02:26;44.13;;;21.50;;
7523;SDS011;3803;51.666;7.630;2022-12-01T02:02:47;44.95;;;21.50;;
7523;SDS011;3803;51.666;7.630;2022-12-01T02:03:11;48.15;;;22.40;;
7523;SDS011;3803;51.666;7.630;2022-12-01T02:03:35;47.13;;;21.33;;
7523;SDS011;3803;51.666;7.630;2022-12-01T02:03:57;45.80;;;20.58;;
7523;SDS011;3803;51.666;7.630;2022-12-01T02:04:18;47.17;;;20.47;;
7523;SDS011;3803;51.666;7.630;2022-12-01T02:04:40;45.25;;;20.33;;
7523;SDS011;3803;51.666;7.630;2022-12-01T02:05:06;44.60;;;20.90;;
7523;SDS011;3803;51.666;7.630;2022-12-01T02:05:31;47.58;;;21.80;;
7523;SDS011;3803;51.666;7.630;2022-12-01T02:05:53;47.92;;;21.63;;
7523;SDS011;3803;51.666;7.630;2022-12-01T02:06:15;49.42;;;22.15;;
7523;SDS011;3803;51.666;7.630;2022-12-01T02:06:36;50.60;;;22.55;;
7523;SDS011;3803;51.666;7.630;2022-12-01T02:06:56;51.00;;;22.67;;
7523;SDS011;3803;51.666;7.630;2022-12-01T02:07:17;47.77;;;22.33;;
7523;SDS011;3803;51.666;7.630;2022-12-01T02:07:39;45.63;;;22.02;;
7523;SDS011;3803;51.666;7.630;2022-12-01T02:08:01;49.42;;;22.60;;
7523;SDS011;3803;51.666;7.630;2022-12-01T02:08:23;53.75;;;23.02;;
7523;SDS011;3803;51.666;7.630;2022-12-01T02:08:44;52.80;;;23.20;;
7523;SDS011;3803;51.666;7.630;2022-12-01T02:09:05;49.57;;;22.93;;
7523;SDS011;3803;51.666;7.630;2022-12-01T02:09:25;51.37;;;22.20;;
7523;SDS011;3803;51.666;7.630;2022-12-01T02:09:46;52.50;;;22.38;;
7523;SDS011;3803;51.666;7.630;2022-12-01T02:10:08;52.80;;;22.37;;
7523;SDS011;3803;51.666;7.630;2022-12-01T02:17:04;59.42;;;25.75;;
7523;SDS011;3803;51.666;7.630;2022-12-01T02:17:34;56.83;;;25.20;;
7523;SDS011;3803;51.666;7.630;2022-12-01T02:18:55;53.67;;;24.05;;
7523;SDS011;3803;51.666;7.630;2022-12-01T02:19:37;56.17;;;24.52;;
7523;SDS011;3803;51.666;7.630;2022-12-01T02:22:33;59.80;;;25.63;;
7523;SDS011;3803;51.666;7.630;2022-12-01T02:23:13;56.28;;;25.60;;
7523;SDS011;3803;51.666;7.630;2022-12-01T02:26:32;61.05;;;26.30;;
7523;SDS011;3803;51.666;7.630;2022-12-01T02:27:48;69.50;;;27.48;;
7523;SDS011;3803;51.666;7.630;2022-12-01T02:30:13;63.50;;;27.33;;